Time;durP1;ratioP1;P1;durP2;ratioP2;P2;SDS_P1;SDS_P2;PMS_P1;PMS_P2;Temp;Humidity;BMP_temperature;BMP_pressure;BME280_temperature;BME280_humidity;BME280_pressure;Samples;Min_cycle;Max_cycle;Signal;HPM_P1;HPM_P2
2021/09/23 00:00:50;;;;;;;11.23;5.93;;;;;;;;;;5033910;28;20399;-58
2021/09/23 00:05:54;;;;;;;7.32;5.32;;;;;;;;;;5033127;28;20383;-58
2021/09/23 00:08:20;;;;;;;6.75;5.18;;;;;;;;;;5033480;28;20088;-58
2021/09/23 00:10:46;;;;;;;5.65;5.03;;;;;;;;;;5033133;28;20026;-58
2021/09/23 00:13:13;;;;;;;9.32;4.57;;;;;;;;;;5033026;28;20047;-56
2021/09/23 00:15:39;;;;;;;5.65;4.38;;;;;;;;;;5033005;28;20061;-58
2021/09/23 00:18:07;;;;;;;5.90;4.38;;;;;;;;;;5033152;28;20026;-58
2021/09/23 00:20:37;;;;;;;6.32;4.80;;;;;;;;;;5032923;28;20030;-58
2021/09/23 00:23:07;;;;;;;7.60;4.78;;;;;;;;;;5034670;28;20419;-58
2021/09/23 00:25:34;;;;;;;6.88;5.15;;;;;;;;;;5036180;28;20112;-58
2021/09/23 00:28:00;;;;;;;7.00;4.60;;;;;;;;;;5036782;28;20030;-58
2021/09/23 00:30:33;;;;;;;5.28;4.47;;;;;;;;;;5036287;28;20068;-58
2021/09/23 00:32:59;;;;;;;6.45;4.50;;;;;;;;;;5018563;28;20022;-58
2021/09/23 00:35:25;;;;;;;8.60;4.97;;;;;;;;;;5036067;28;20029;-58
2021/09/23 00:37:52;;;;;;;8.85;5.57;;;;;;;;;;5036507;28;20025;-58
2021/09/23 00:40:18;;;;;;;7.43;5.10;;;;;;;;;;5036227;28;20114;-58
2021/09/23 00:42:47;;;;;;;5.05;4.55;;;;;;;;;;5036489;28;20022;-58
2021/09/23 00:45:13;;;;;;;8.38;5.05;;;;;;;;;;5036670;28;20037;-58
2021/09/23 00:47:39;;;;;;;11.00;5.60;;;;;;;;;;5036302;28;20088;-58
2021/09/23 00:50:06;;;;;;;5.57;4.93;;;;;;;;;;5035606;28;20037;-58
2021/09/23 00:52:34;;;;;;;7.55;5.47;;;;;;;;;;5019424;28;20027;-58
2021/09/23 00:55:00;;;;;;;7.97;5.78;;;;;;;;;;5035882;28;20022;-58
2021/09/23 00:57:26;;;;;;;6.82;4.72;;;;;;;;;;5035652;28;20482;-58
2021/09/23 00:59:56;;;;;;;6.00;5.03;;;;;;;;;;5036367;28;20355;-58
2021/09/23 01:02:24;;;;;;;4.88;4.07;;;;;;;;;;5035895;28;20037;-58
2021/09/23 01:04:54;;;;;;;5.05;3.92;;;;;;;;;;5035822;28;20033;-58
2021/09/23 01:07:21;;;;;;;7.95;5.28;;;;;;;;;;5035699;28;20080;-58
2021/09/23 01:09:53;;;;;;;5.57;4.75;;;;;;;;;;5035941;28;20364;-58
2021/09/23 01:12:20;;;;;;;7.75;4.60;;;;;;;;;;5017867;28;20112;-58
2021/09/23 01:14:47;;;;;;;7.53;5.25;;;;;;;;;;5035742;28;20128;-58
2021/09/23 01:17:13;;;;;;;6.28;5.18;;;;;;;;;;5035501;28;20032;-58
2021/09/23 01:19:40;;;;;;;5.90;4.43;;;;;;;;;;5035705;28;20048;-58
2021/09/23 01:22:06;;;;;;;5.85;4.88;;;;;;;;;;5036282;28;20021;-58
2021/09/23 01:24:33;;;;;;;7.15;5.78;;;;;;;;;;5035672;28;20029;-58
2021/09/23 01:27:00;;;;;;;6.10;4.20;;;;;;;;;;5035258;28;20084;-58
2021/09/23 01:29:30;;;;;;;6.15;4.85;;;;;;;;;;5035275;28;20053;-58
2021/09/23 01:31:57;;;;;;;5.68;4.80;;;;;;;;;;5035299;28;20527;-58
2021/09/23 01:34:25;;;;;;;7.05;5.38;;;;;;;;;;5034993;28;20060;-58
2021/09/23 01:36:51;;;;;;;4.75;4.25;;;;;;;;;;5035034;28;20053;-58
2021/09/23 01:39:21;;;;;;;7.10;5.80;;;;;;;;;;5035111;28;20068;-58
2021/09/23 01:41:47;;;;;;;6.20;5.17;;;;;;;;;;5034300;28;20030;-58
2021/09/23 01:44:13;;;;;;;6.35;4.78;;;;;;;;;;5035005;28;20267;-58
2021/09/23 01:46:39;;;;;;;7.15;4.90;;;;;;;;;;5034717;28;20468;-58
2021/09/23 01:49:06;;;;;;;8.02;5.32;;;;;;;;;;5034933;28;20447;-58
2021/09/23 01:51:34;;;;;;;7.47;5.65;;;;;;;;;;5034985;28;20034;-58
2021/09/23 01:54:00;;;;;;;7.18;5.53;;;;;;;;;;5035045;28;20033;-58
2021/09/23 01:56:26;;;;;;;6.70;5.22;;;;;;;;;;5034777;28;20117;-58
2021/09/23 01:58:55;;;;;;;7.85;5.00;;;;;;;;;;5034693;28;20021;-58
2021/09/23 02:01:21;;;;;;;7.53;5.68;;;;;;;;;;5034701;28;20034;-58
2021/09/23 02:03:47;;;;;;;5.88;4.88;;;;;;;;;;5034957;28;20021;-58
2021/09/23 02:06:13;;;;;;;7.60;5.25;;;;;;;;;;5034547;28;20128;-58
2021/09/23 02:08:40;;;;;;;7.75;5.53;;;;;;;;;;5034593;28;20053;-58
2021/09/23 02:11:06;;;;;;;7.00;5.25;;;;;;;;;;5034391;28;20052;-58
2021/09/23 02:13:32;;;;;;;7.68;5.70;;;;;;;;;;5034339;28;20502;-58
2021/09/23 02:15:58;;;;;;;9.05;6.15;;;;;;;;;;5017505;28;20025;-58
2021/09/23 02:18:24;;;;;;;8.52;5.57;;;;;;;;;;5035230;28;20152;-58
2021/09/23 02:20:50;;;;;;;6.22;5.63;;;;;;;;;;5034284;28;20463;-58
2021/09/23 02:23:16;;;;;;;10.57;5.75;;;;;;;;;;5034349;28;20116;-58
2021/09/23 02:25:43;;;;;;;9.65;5.97;;;;;;;;;;5034235;28;20036;-58
2021/09/23 02:28:09;;;;;;;6.47;5.88;;;;;;;;;;5034192;28;20032;-58
2021/09/23 02:30:35;;;;;;;7.22;4.95;;;;;;;;;;5034812;28;20443;-58
2021/09/23 02:33:06;;;;;;;8.52;6.10;;;;;;;;;;5034359;28;20029;-58
2021/09/23 02:35:32;;;;;;;7.60;5.88;;;;;;;;;;5034486;28;20026;-58
2021/09/23 02:37:58;;;;;;;7.57;5.65;;;;;;;;;;5033938;28;20048;-58
2021/09/23 02:40:25;;;;;;;8.32;6.75;;;;;;;;;;5033925;28;20530;-58
2021/09/23 02:42:51;;;;;;;7.88;7.07;;;;;;;;;;5034272;28;20456;-58
2021/09/23 02:45:17;;;;;;;10.32;7.65;;;;;;;;;;5033344;28;20021;-58
2021/09/23 02:47:43;;;;;;;9.32;8.35;;;;;;;;;;5034205;28;20026;-58
2021/09/23 02:50:10;;;;;;;11.88;8.52;;;;;;;;;;5034083;28;20347;-58
2021/09/23 02:52:36;;;;;;;7.60;6.90;;;;;;;;;;5034660;28;20044;-58
2021/09/23 02:55:05;;;;;;;14.60;8.27;;;;;;;;;;5034090;28;20033;-58
2021/09/23 02:57:31;;;;;;;9.18;7.78;;;;;;;;;;5033821;28;20100;-58
2021/09/23 02:59:57;;;;;;;7.82;6.28;;;;;;;;;;5033729;28;20120;-58
2021/09/23 03:02:23;;;;;;;9.68;7.22;;;;;;;;;;5033732;28;20525;-58
2021/09/23 03:04:49;;;;;;;10.30;7.07;;;;;;;;;;5033595;28;20088;-58
2021/09/23 03:07:15;;;;;;;7.93;7.10;;;;;;;;;;5033263;28;20036;-58
2021/09/23 03:09:44;;;;;;;8.65;6.65;;;;;;;;;;5033553;28;20053;-58
2021/09/23 03:12:10;;;;;;;11.05;8.00;;;;;;;;;;5033506;28;20033;-58
2021/09/23 03:14:36;;;;;;;8.13;6.47;;;;;;;;;;5034069;28;20054;-58
2021/09/23 03:17:02;;;;;;;7.63;6.93;;;;;;;;;;5033526;28;20068;-58
2021/09/23 03:19:28;;;;;;;8.02;6.32;;;;;;;;;;5015833;28;20036;-58
2021/09/23 03:21:55;;;;;;;6.88;5.70;;;;;;;;;;5033516;28;20032;-58
2021/09/23 03:24:21;;;;;;;8.55;6.68;;;;;;;;;;5033075;28;20037;-58
2021/09/23 03:26:47;;;;;;;6.82;6.10;;;;;;;;;;5034113;28;20021;-58
2021/09/23 03:29:16;;;;;;;6.90;5.55;;;;;;;;;;5033616;28;20388;-58
2021/09/23 03:31:42;;;;;;;6.03;5.43;;;;;;;;;;5033301;28;20030;-58
2021/09/23 03:34:10;;;;;;;9.15;6.13;;;;;;;;;;5033596;28;20059;-58
2021/09/23 03:36:36;;;;;;;12.40;8.23;;;;;;;;;;5033383;28;20026;-58
2021/09/23 03:39:03;;;;;;;10.48;6.53;;;;;;;;;;5033727;28;20073;-58
2021/09/23 03:41:30;;;;;;;9.23;6.22;;;;;;;;;;5033273;28;20040;-58
2021/09/23 03:43:56;;;;;;;8.50;7.43;;;;;;;;;;5033907;28;20034;-58
2021/09/23 03:46:22;;;;;;;9.77;7.82;;;;;;;;;;5033334;28;20036;-58
2021/09/23 03:48:50;;;;;;;10.40;7.40;;;;;;;;;;5033382;28;20029;-58
2021/09/23 03:51:17;;;;;;;9.13;7.43;;;;;;;;;;5033076;28;20033;-58
2021/09/23 03:53:43;;;;;;;7.35;6.63;;;;;;;;;;5015485;28;20037;-58
2021/09/23 03:56:12;;;;;;;9.30;7.10;;;;;;;;;;5033736;28;20456;-58
2021/09/23 03:58:41;;;;;;;10.23;7.38;;;;;;;;;;5017944;28;20029;-58
2021/09/23 04:01:10;;;;;;;7.90;6.50;;;;;;;;;;5037576;28;20029;-58
2021/09/23 04:03:36;;;;;;;8.98;7.45;;;;;;;;;;5037556;28;20478;-58
2021/09/23 04:06:05;;;;;;;9.05;7.45;;;;;;;;;;5036974;28;20415;-58
2021/09/23 04:08:31;;;;;;;12.10;8.40;;;;;;;;;;5018896;28;20116;-58
2021/09/23 04:10:58;;;;;;;8.20;7.22;;;;;;;;;;5037044;28;20037;-59
2021/09/23 04:13:24;;;;;;;10.25;7.05;;;;;;;;;;5036634;28;20028;-59
2021/09/23 04:15:50;;;;;;;8.15;6.90;;;;;;;;;;5036189;28;20422;-58
2021/09/23 04:18:17;;;;;;;9.07;7.25;;;;;;;;;;5036916;28;20064;-58
2021/09/23 04:20:47;;;;;;;9.20;7.78;;;;;;;;;;5036604;28;20065;-58
2021/09/23 04:23:13;;;;;;;9.98;8.43;;;;;;;;;;5019356;28;20340;-59
2021/09/23 04:25:39;;;;;;;10.13;8.13;;;;;;;;;;5036431;28;20112;-58
2021/09/23 04:28:08;;;;;;;11.27;8.48;;;;;;;;;;5036841;28;20072;-58
2021/09/23 04:30:35;;;;;;;14.20;9.73;;;;;;;;;;5036288;28;20037;-58
2021/09/23 04:33:01;;;;;;;14.70;10.55;;;;;;;;;;5019831;28;20422;-58
2021/09/23 04:35:27;;;;;;;11.13;8.98;;;;;;;;;;5018691;28;20026;-58
2021/09/23 04:37:53;;;;;;;13.43;8.77;;;;;;;;;;5036281;28;20029;-58
2021/09/23 04:40:24;;;;;;;10.85;7.80;;;;;;;;;;5036294;28;20034;-58
2021/09/23 04:42:58;;;;;;;10.10;8.68;;;;;;;;;;5036685;28;20025;-58
2021/09/23 04:45:24;;;;;;;15.93;10.32;;;;;;;;;;5036292;28;20040;-58
2021/09/23 04:47:50;;;;;;;9.50;8.57;;;;;;;;;;5036144;28;20029;-58
2021/09/23 04:50:16;;;;;;;12.57;10.10;;;;;;;;;;5035892;28;20037;-58
2021/09/23 04:52:42;;;;;;;11.88;9.50;;;;;;;;;;5035731;28;20064;-58
2021/09/23 04:55:13;;;;;;;10.60;9.43;;;;;;;;;;5036039;28;20060;-58
2021/09/23 04:57:39;;;;;;;11.65;9.98;;;;;;;;;;5035888;28;20053;-58
2021/09/23 05:00:06;;;;;;;16.48;10.98;;;;;;;;;;5035620;28;20061;-58
2021/09/23 05:02:33;;;;;;;11.60;9.57;;;;;;;;;;5018118;28;20034;-58
2021/09/23 05:04:59;;;;;;;16.40;11.07;;;;;;;;;;5017730;28;20030;-58
2021/09/23 05:07:25;;;;;;;13.77;10.80;;;;;;;;;;5036179;28;20437;-58
2021/09/23 05:09:51;;;;;;;13.35;10.25;;;;;;;;;;5035166;28;20065;-58
2021/09/23 05:12:17;;;;;;;10.68;9.55;;;;;;;;;;5018227;28;20034;-58
2021/09/23 05:14:43;;;;;;;11.05;8.85;;;;;;;;;;5001322;28;20053;-58
2021/09/23 05:17:17;;;;;;;19.85;9.82;;;;;;;;;;5035874;28;20026;-58
2021/09/23 05:19:43;;;;;;;11.77;9.88;;;;;;;;;;5035635;28;20459;-58
2021/09/23 05:22:09;;;;;;;12.02;9.88;;;;;;;;;;5036392;28;20022;-58
2021/09/23 05:24:37;;;;;;;11.80;9.70;;;;;;;;;;5035932;28;20076;-58
2021/09/23 05:27:03;;;;;;;19.67;10.55;;;;;;;;;;5002029;28;20093;-58
2021/09/23 05:29:29;;;;;;;12.00;9.43;;;;;;;;;;5017759;28;20026;-58
2021/09/23 05:31:55;;;;;;;13.70;9.43;;;;;;;;;;5018440;28;20187;-58
2021/09/23 05:34:22;;;;;;;13.20;8.77;;;;;;;;;;5035303;28;20033;-58
2021/09/23 05:36:48;;;;;;;15.38;10.20;;;;;;;;;;5035112;28;20026;-58
2021/09/23 05:39:14;;;;;;;12.75;9.77;;;;;;;;;;5034538;28;20033;-58
2021/09/23 05:41:43;;;;;;;12.38;10.07;;;;;;;;;;5017610;28;20056;-58
2021/09/23 05:44:09;;;;;;;12.18;9.80;;;;;;;;;;5035154;28;20113;-58
2021/09/23 05:46:35;;;;;;;14.05;10.10;;;;;;;;;;5035078;28;20460;-58
2021/09/23 05:49:11;;;;;;;12.02;9.02;;;;;;;;;;5034952;28;20030;-58
2021/09/23 05:51:37;;;;;;;14.07;10.10;;;;;;;;;;5017457;28;20050;-58
2021/09/23 05:54:25;;;;;;;12.50;9.95;;;;;;;;;;5018121;28;20519;-58
2021/09/23 05:56:49;;;;;;;10.55;8.75;;;;;;;;;;5034859;28;20470;-58
2021/09/23 05:59:16;;;;;;;11.82;9.13;;;;;;;;;;5035033;28;20034;-58
2021/09/23 06:01:42;;;;;;;13.00;8.30;;;;;;;;;;5017808;28;20068;-58
2021/09/23 06:04:08;;;;;;;11.20;9.10;;;;;;;;;;5016947;28;20049;-58
2021/09/23 06:06:34;;;;;;;11.68;9.07;;;;;;;;;;5017025;28;20067;-58
2021/09/23 06:09:00;;;;;;;12.40;9.68;;;;;;;;;;5034651;28;20076;-58
2021/09/23 06:11:29;;;;;;;14.40;8.82;;;;;;;;;;5034372;28;20033;-58
2021/09/23 06:13:55;;;;;;;10.70;8.23;;;;;;;;;;5034975;28;20148;-58
2021/09/23 06:16:25;;;;;;;14.27;10.02;;;;;;;;;;5034129;28;20032;-58
2021/09/23 06:18:51;;;;;;;12.30;9.20;;;;;;;;;;5034069;28;20025;-58
2021/09/23 06:21:17;;;;;;;11.60;8.60;;;;;;;;;;5033611;28;20044;-58
2021/09/23 06:23:43;;;;;;;11.00;9.88;;;;;;;;;;5034972;28;20363;-58
2021/09/23 06:26:09;;;;;;;12.88;9.35;;;;;;;;;;5034831;28;20052;-58
2021/09/23 06:28:38;;;;;;;9.90;8.13;;;;;;;;;;5016598;28;20518;-58
2021/09/23 06:31:04;;;;;;;10.40;8.52;;;;;;;;;;5034168;28;20041;-58
2021/09/23 06:33:30;;;;;;;12.60;9.32;;;;;;;;;;5017089;28;20375;-58
2021/09/23 06:35:57;;;;;;;13.57;8.68;;;;;;;;;;5034112;28;20025;-58
2021/09/23 06:38:25;;;;;;;13.10;8.10;;;;;;;;;;5034014;28;20040;-58
2021/09/23 06:40:54;;;;;;;11.73;8.02;;;;;;;;;;5016938;28;20521;-58
2021/09/23 06:43:21;;;;;;;11.90;7.78;;;;;;;;;;5034314;28;20091;-58
2021/09/23 06:45:47;;;;;;;11.43;7.72;;;;;;;;;;5034843;28;20056;-59
2021/09/23 06:48:13;;;;;;;11.23;7.18;;;;;;;;;;5034196;28;20052;-58
2021/09/23 06:50:39;;;;;;;9.27;7.40;;;;;;;;;;5033744;28;20033;-58
2021/09/23 06:53:05;;;;;;;10.13;7.80;;;;;;;;;;5033847;28;20041;-58
2021/09/23 06:55:31;;;;;;;8.98;8.05;;;;;;;;;;5015946;28;20026;-58
2021/09/23 06:57:59;;;;;;;11.23;7.18;;;;;;;;;;5034642;28;20121;-58
2021/09/23 07:00:28;;;;;;;8.40;6.00;;;;;;;;;;5033744;28;20064;-58
2021/09/23 07:02:54;;;;;;;11.98;6.82;;;;;;;;;;5015793;28;20037;-58
2021/09/23 07:05:20;;;;;;;9.75;7.47;;;;;;;;;;5033426;28;20383;-59
2021/09/23 07:07:46;;;;;;;9.25;5.95;;;;;;;;;;5016067;28;20594;-58
2021/09/23 07:10:12;;;;;;;7.50;5.65;;;;;;;;;;5016822;28;20037;-58
2021/09/23 07:12:38;;;;;;;6.65;6.05;;;;;;;;;;5016318;28;20037;-58
2021/09/23 07:15:07;;;;;;;10.07;7.30;;;;;;;;;;5033802;28;20041;-59
2021/09/23 07:17:35;;;;;;;8.65;6.95;;;;;;;;;;5016250;28;20420;-58
2021/09/23 07:20:04;;;;;;;8.40;7.10;;;;;;;;;;5015816;28;20034;-58
2021/09/23 07:22:30;;;;;;;8.82;7.07;;;;;;;;;;5033962;28;20104;-58
2021/09/23 07:24:56;;;;;;;11.18;7.35;;;;;;;;;;5033504;28;20479;-57
2021/09/23 07:27:22;;;;;;;7.72;6.50;;;;;;;;;;5033800;28;20017;-58
2021/09/23 07:29:48;;;;;;;7.72;6.75;;;;;;;;;;5033519;28;20087;-58
2021/09/23 07:32:22;;;;;;;6.80;5.97;;;;;;;;;;5036188;28;20029;-58
2021/09/23 07:34:48;;;;;;;8.00;6.80;;;;;;;;;;5020672;28;20026;-58
2021/09/23 07:37:14;;;;;;;7.43;5.05;;;;;;;;;;5037375;28;20419;-58
2021/09/23 07:39:40;;;;;;;8.77;6.05;;;;;;;;;;5003795;28;20525;-58
2021/09/23 07:42:06;;;;;;;11.50;6.50;;;;;;;;;;5038341;28;20371;-58
2021/09/23 07:44:33;;;;;;;7.40;5.72;;;;;;;;;;5037850;28;20032;-58
2021/09/23 07:46:59;;;;;;;14.90;5.13;;;;;;;;;;5037843;28;20026;-58
2021/09/23 07:49:28;;;;;;;8.25;5.65;;;;;;;;;;5037596;28;20034;-58
2021/09/23 07:51:57;;;;;;;8.73;6.18;;;;;;;;;;5037292;28;20041;-58
2021/09/23 07:54:26;;;;;;;7.10;5.13;;;;;;;;;;5037861;28;20037;-58
2021/09/23 07:56:52;;;;;;;8.48;5.90;;;;;;;;;;5037000;28;20447;-58
2021/09/23 07:59:18;;;;;;;6.63;5.22;;;;;;;;;;5037713;28;20029;-58
2021/09/23 08:01:47;;;;;;;10.93;6.68;;;;;;;;;;5037063;28;20472;-58
2021/09/23 08:04:13;;;;;;;8.50;5.88;;;;;;;;;;5037352;28;20568;-58
2021/09/23 08:06:40;;;;;;;7.78;5.60;;;;;;;;;;5019186;28;20061;-58
2021/09/23 08:09:06;;;;;;;6.60;5.13;;;;;;;;;;5019665;28;20030;-57
2021/09/23 08:11:32;;;;;;;8.43;5.88;;;;;;;;;;5018996;28;20040;-58
2021/09/23 08:13:58;;;;;;;6.57;5.07;;;;;;;;;;5037242;28;20072;-58
2021/09/23 08:16:24;;;;;;;7.18;5.00;;;;;;;;;;5019859;28;20056;-58
2021/09/23 08:18:55;;;;;;;7.18;4.80;;;;;;;;;;5019146;28;20064;-58
2021/09/23 08:21:22;;;;;;;7.30;4.60;;;;;;;;;;5018656;28;20033;-58
2021/09/23 08:23:51;;;;;;;6.50;4.47;;;;;;;;;;5019052;28;20097;-58
2021/09/23 08:26:17;;;;;;;11.25;4.53;;;;;;;;;;5036623;28;20036;-58
2021/09/23 08:28:49;;;;;;;6.53;4.30;;;;;;;;;;5036587;28;20029;-59
2021/09/23 08:31:17;;;;;;;6.60;4.57;;;;;;;;;;5036210;28;20044;-59
2021/09/23 08:33:46;;;;;;;5.93;4.25;;;;;;;;;;5036828;28;20049;-59
2021/09/23 08:36:12;;;;;;;7.18;4.38;;;;;;;;;;5036589;28;20021;-59
2021/09/23 08:38:38;;;;;;;8.13;4.72;;;;;;;;;;5036425;28;20087;-58
2021/09/23 08:41:05;;;;;;;5.32;4.15;;;;;;;;;;5036300;28;20033;-58
2021/09/23 08:43:34;;;;;;;9.27;4.72;;;;;;;;;;5036313;28;20052;-58
2021/09/23 08:46:02;;;;;;;8.30;5.50;;;;;;;;;;5018512;28;20022;-58
2021/09/23 08:48:28;;;;;;;6.90;5.65;;;;;;;;;;5036696;28;20482;-58
2021/09/23 08:50:54;;;;;;;7.38;4.93;;;;;;;;;;5035800;28;20076;-58
2021/09/23 08:53:20;;;;;;;6.13;3.83;;;;;;;;;;5036494;28;20018;-58
2021/09/23 08:55:46;;;;;;;8.48;3.95;;;;;;;;;;5035920;28;20032;-59
2021/09/23 08:58:14;;;;;;;6.38;3.80;;;;;;;;;;5035065;28;20414;-57
2021/09/23 09:00:59;;;;;;;6.75;4.43;;;;;;;;;;5035866;28;20068;-59
2021/09/23 09:03:26;;;;;;;4.28;3.45;;;;;;;;;;5018819;28;20037;-58
2021/09/23 09:05:55;;;;;;;5.15;3.38;;;;;;;;;;5036405;28;20375;-58
2021/09/23 09:08:22;;;;;;;6.68;3.22;;;;;;;;;;5018194;28;20396;-59
2021/09/23 09:10:48;;;;;;;6.50;3.40;;;;;;;;;;5018200;28;20073;-59
2021/09/23 09:13:14;;;;;;;4.55;3.22;;;;;;;;;;5036565;28;20025;-59
2021/09/23 09:15:42;;;;;;;5.25;3.55;;;;;;;;;;5017482;28;20049;-59
2021/09/23 09:18:12;;;;;;;5.07;3.53;;;;;;;;;;5035685;28;20033;-58
2021/09/23 09:20:58;;;;;;;5.77;3.30;;;;;;;;;;5035923;28;20455;-59
2021/09/23 09:23:25;;;;;;;6.90;3.47;;;;;;;;;;5035446;28;20238;-59
2021/09/23 09:25:52;;;;;;;4.20;3.00;;;;;;;;;;5035583;28;20422;-58
2021/09/23 09:28:19;;;;;;;5.55;3.33;;;;;;;;;;5035535;28;20024;-59
2021/09/23 09:30:45;;;;;;;5.68;3.28;;;;;;;;;;5035319;28;20033;-60
2021/09/23 09:33:11;;;;;;;5.00;3.65;;;;;;;;;;5036213;28;20021;-59
2021/09/23 09:35:37;;;;;;;3.72;3.17;;;;;;;;;;5017460;28;20486;-59
2021/09/23 09:38:06;;;;;;;3.50;2.88;;;;;;;;;;5035097;28;20037;-59
2021/09/23 09:40:34;;;;;;;4.22;2.83;;;;;;;;;;5035745;28;20029;-59
2021/09/23 09:43:04;;;;;;;3.60;2.47;;;;;;;;;;5035696;28;20069;-59
2021/09/23 09:45:30;;;;;;;5.20;3.28;;;;;;;;;;5035075;28;20025;-59
2021/09/23 09:47:57;;;;;;;4.10;2.63;;;;;;;;;;5035046;28;20410;-59
2021/09/23 09:50:31;;;;;;;4.65;3.00;;;;;;;;;;5001050;28;20052;-59
2021/09/23 09:52:57;;;;;;;4.70;2.80;;;;;;;;;;5034885;28;20025;-59
2021/09/23 09:55:33;;;;;;;6.05;3.13;;;;;;;;;;5034716;28;20018;-59
2021/09/23 09:58:00;;;;;;;3.63;2.13;;;;;;;;;;5034467;28;20024;-59
2021/09/23 10:00:29;;;;;;;5.90;3.22;;;;;;;;;;5034861;28;20068;-60
2021/09/23 10:02:56;;;;;;;3.45;2.58;;;;;;;;;;5035165;28;20089;-59
2021/09/23 10:05:22;;;;;;;5.70;2.78;;;;;;;;;;5016581;28;20025;-59
2021/09/23 10:07:49;;;;;;;3.25;2.33;;;;;;;;;;5035003;28;20452;-59
2021/09/23 10:10:17;;;;;;;4.85;2.38;;;;;;;;;;5035114;28;20025;-59
2021/09/23 10:12:44;;;;;;;3.78;2.10;;;;;;;;;;5034541;28;20029;-59
2021/09/23 10:15:13;;;;;;;4.47;2.30;;;;;;;;;;5034520;28;20468;-59
2021/09/23 10:17:41;;;;;;;3.10;1.98;;;;;;;;;;5017318;28;20057;-58
2021/09/23 10:20:07;;;;;;;3.10;2.25;;;;;;;;;;5034739;28;20040;-59
2021/09/23 10:22:34;;;;;;;2.60;1.95;;;;;;;;;;5034452;28;20373;-59
2021/09/23 10:25:02;;;;;;;4.97;2.60;;;;;;;;;;5034660;28;20028;-59
2021/09/23 10:30:14;;;;;;;3.35;2.05;;;;;;;;;;5034318;28;20037;-59
2021/09/23 10:32:40;;;;;;;5.68;2.25;;;;;;;;;;5034530;28;20018;-59
2021/09/23 10:35:07;;;;;;;5.70;1.90;;;;;;;;;;5015669;28;20049;-59
2021/09/23 10:37:33;;;;;;;3.00;1.98;;;;;;;;;;5033784;28;20108;-59
2021/09/23 10:40:00;;;;;;;3.42;1.77;;;;;;;;;;5016722;28;20018;-59
2021/09/23 10:42:26;;;;;;;2.78;1.73;;;;;;;;;;5034249;28;20056;-59
2021/09/23 10:44:53;;;;;;;3.67;1.73;;;;;;;;;;5034161;28;20060;-59
2021/09/23 10:47:26;;;;;;;3.38;1.95;;;;;;;;;;5034060;28;20029;-59
2021/09/23 10:49:52;;;;;;;3.90;1.70;;;;;;;;;;5034374;28;20466;-59
2021/09/23 10:52:20;;;;;;;2.97;1.60;;;;;;;;;;5016996;28;20030;-59
2021/09/23 10:54:46;;;;;;;2.65;1.63;;;;;;;;;;5033915;28;20045;-59
2021/09/23 10:57:13;;;;;;;3.25;1.75;;;;;;;;;;5033966;28;20025;-59
2021/09/23 10:59:39;;;;;;;3.40;1.50;;;;;;;;;;5016813;28;20022;-59
2021/09/23 11:02:25;;;;;;;1.80;1.30;;;;;;;;;;5016124;28;20029;-59
2021/09/23 11:05:01;;;;;;;3.92;2.00;;;;;;;;;;5033912;28;20076;-59
2021/09/23 11:07:30;;;;;;;3.15;1.77;;;;;;;;;;5033644;28;20021;-59
2021/09/23 11:10:08;;;;;;;2.42;1.70;;;;;;;;;;5033929;28;20353;-59
2021/09/23 11:12:34;;;;;;;3.13;1.52;;;;;;;;;;5000279;28;20522;-59
2021/09/23 11:15:00;;;;;;;3.22;1.50;;;;;;;;;;5034153;28;20072;-59
2021/09/23 11:17:28;;;;;;;3.53;1.42;;;;;;;;;;5016119;28;20475;-59
2021/09/23 11:20:00;;;;;;;2.40;1.30;;;;;;;;;;5033565;28;20025;-59
2021/09/23 11:22:37;;;;;;;2.30;1.35;;;;;;;;;;5016475;28;20028;-59
2021/09/23 11:25:07;;;;;;;2.15;1.35;;;;;;;;;;5016177;28;20025;-59
2021/09/23 11:27:33;;;;;;;5.85;1.42;;;;;;;;;;5034128;28;20022;-59
2021/09/23 11:29:59;;;;;;;2.90;1.50;;;;;;;;;;5034041;28;20030;-59
2021/09/23 11:32:25;;;;;;;2.45;1.55;;;;;;;;;;5034070;28;20368;-58
2021/09/23 11:35:03;;;;;;;2.13;1.45;;;;;;;;;;5015860;28;20021;-59
2021/09/23 11:37:30;;;;;;;4.60;1.38;;;;;;;;;;5033721;28;20029;-59
2021/09/23 11:39:57;;;;;;;2.75;1.30;;;;;;;;;;5033401;28;20083;-59
2021/09/23 11:42:24;;;;;;;3.53;1.88;;;;;;;;;;5033667;28;20073;-59
2021/09/23 11:44:51;;;;;;;2.72;1.40;;;;;;;;;;5033914;28;20061;-59
2021/09/23 11:47:18;;;;;;;2.88;1.95;;;;;;;;;;5033911;28;20029;-59
2021/09/23 11:49:48;;;;;;;2.20;1.45;;;;;;;;;;5033383;28;20348;-59
2021/09/23 11:52:14;;;;;;;2.10;1.20;;;;;;;;;;5016086;28;20108;-59
2021/09/23 11:54:40;;;;;;;3.53;1.10;;;;;;;;;;5015852;28;20034;-59
2021/09/23 11:57:06;;;;;;;3.95;1.23;;;;;;;;;;5033827;28;20022;-59
2021/09/23 11:59:32;;;;;;;2.70;1.45;;;;;;;;;;5015613;28;20026;-59
2021/09/23 12:01:59;;;;;;;1.92;1.05;;;;;;;;;;5033747;28;20021;-59
2021/09/23 12:04:25;;;;;;;3.92;1.60;;;;;;;;;;5033508;28;20061;-59
2021/09/23 12:07:04;;;;;;;3.70;1.50;;;;;;;;;;5033743;28;20029;-59
2021/09/23 12:09:30;;;;;;;2.28;1.15;;;;;;;;;;5033165;28;20017;-59
2021/09/23 12:11:56;;;;;;;2.15;1.30;;;;;;;;;;5033172;28;20033;-60
2021/09/23 12:14:22;;;;;;;2.53;1.65;;;;;;;;;;5033333;28;20121;-59
2021/09/23 12:16:48;;;;;;;2.00;1.30;;;;;;;;;;5033092;28;20036;-59
2021/09/23 12:19:18;;;;;;;2.53;1.45;;;;;;;;;;5035910;28;20037;-60
2021/09/23 12:21:55;;;;;;;2.15;1.38;;;;;;;;;;5019027;28;20040;-59
2021/09/23 12:24:40;;;;;;;2.13;1.33;;;;;;;;;;5036658;28;20033;-60
2021/09/23 12:27:06;;;;;;;3.45;1.40;;;;;;;;;;5019518;28;20017;-59
2021/09/23 12:29:35;;;;;;;2.75;1.45;;;;;;;;;;5036648;28;20026;-59
2021/09/23 12:32:01;;;;;;;2.35;1.13;;;;;;;;;;5036440;28;20124;-60
2021/09/23 12:34:27;;;;;;;4.03;1.50;;;;;;;;;;5036498;28;20045;-59
2021/09/23 12:37:02;;;;;;;3.38;1.63;;;;;;;;;;5036399;28;20104;-59
2021/09/23 12:42:33;;;;;;;2.15;1.30;;;;;;;;;;5036957;28;20034;-59
2021/09/23 12:45:01;;;;;;;2.08;1.33;;;;;;;;;;5036177;28;20025;-59
2021/09/23 12:47:27;;;;;;;2.28;1.30;;;;;;;;;;5018415;28;20471;-59
2021/09/23 12:49:53;;;;;;;2.47;1.48;;;;;;;;;;5036505;28;20029;-57
2021/09/23 12:52:38;;;;;;;1.67;0.93;;;;;;;;;;5019118;28;20028;-57
2021/09/23 12:55:14;;;;;;;1.95;1.23;;;;;;;;;;5036181;28;20468;-57
2021/09/23 12:57:49;;;;;;;2.15;1.35;;;;;;;;;;5036457;28;20030;-57
2021/09/23 13:00:18;;;;;;;1.70;1.10;;;;;;;;;;5036289;28;20029;-57
2021/09/23 13:02:46;;;;;;;1.65;0.93;;;;;;;;;;5035997;28;20101;-57
2021/09/23 13:05:12;;;;;;;2.10;1.30;;;;;;;;;;5035949;28;20044;-57
2021/09/23 13:07:46;;;;;;;2.25;1.42;;;;;;;;;;5035951;28;20032;-57
2021/09/23 13:10:41;;;;;;;2.28;1.38;;;;;;;;;;5034948;28;20049;-57
2021/09/23 13:13:08;;;;;;;2.75;1.58;;;;;;;;;;5018955;28;20040;-58
2021/09/23 13:15:35;;;;;;;4.22;1.58;;;;;;;;;;5035577;28;20072;-58
2021/09/23 13:18:04;;;;;;;2.83;1.45;;;;;;;;;;5036006;28;20030;-58
2021/09/23 13:20:31;;;;;;;5.10;1.65;;;;;;;;;;5017781;28;20180;-58
2021/09/23 13:22:57;;;;;;;2.33;1.27;;;;;;;;;;5035730;28;20029;-57
2021/09/23 13:25:24;;;;;;;1.88;1.17;;;;;;;;;;5018129;28;20025;-57
2021/09/23 13:27:50;;;;;;;1.65;1.15;;;;;;;;;;5035631;28;20032;-57
2021/09/23 13:30:16;;;;;;;2.03;1.10;;;;;;;;;;5017398;28;20048;-58
2021/09/23 13:32:43;;;;;;;4.35;2.08;;;;;;;;;;5035865;28;20025;-58
2021/09/23 13:35:11;;;;;;;4.07;1.58;;;;;;;;;;5035440;28;20022;-59
2021/09/23 13:37:37;;;;;;;8.48;1.73;;;;;;;;;;5035272;28;20119;-58
2021/09/23 13:40:04;;;;;;;3.03;1.55;;;;;;;;;;5035233;28;20021;-59
2021/09/23 13:42:30;;;;;;;2.45;1.20;;;;;;;;;;5001381;28;20032;-59
2021/09/23 13:44:56;;;;;;;2.60;1.60;;;;;;;;;;5035484;28;20018;-58
2021/09/23 13:47:22;;;;;;;2.50;1.75;;;;;;;;;;5000898;28;20456;-58
2021/09/23 13:49:50;;;;;;;2.67;1.67;;;;;;;;;;5035122;28;20057;-58
2021/09/23 13:52:16;;;;;;;3.75;1.77;;;;;;;;;;5035452;28;20032;-59
2021/09/23 13:54:42;;;;;;;4.22;1.70;;;;;;;;;;5035021;28;20021;-58
2021/09/23 13:57:08;;;;;;;8.55;1.88;;;;;;;;;;5035250;28;20032;-58
2021/09/23 13:59:34;;;;;;;3.72;2.13;;;;;;;;;;5034922;28;20057;-58
2021/09/23 14:02:00;;;;;;;6.80;2.58;;;;;;;;;;5017501;28;20036;-58
2021/09/23 14:04:26;;;;;;;5.95;2.05;;;;;;;;;;5034564;28;20379;-58
2021/09/23 14:06:55;;;;;;;4.32;1.80;;;;;;;;;;5034833;28;20036;-58
2021/09/23 14:09:21;;;;;;;2.60;1.45;;;;;;;;;;5017164;28;20017;-59
2021/09/23 14:11:47;;;;;;;3.10;1.77;;;;;;;;;;5034684;28;20523;-58
2021/09/23 14:14:13;;;;;;;2.58;1.45;;;;;;;;;;5034927;28;20055;-58
2021/09/23 14:16:39;;;;;;;5.43;2.45;;;;;;;;;;5017626;28;20095;-58
2021/09/23 14:19:05;;;;;;;3.40;2.08;;;;;;;;;;5034917;28;20499;-58
2021/09/23 14:21:31;;;;;;;2.20;1.48;;;;;;;;;;5034270;28;20025;-58
2021/09/23 14:23:57;;;;;;;2.63;1.95;;;;;;;;;;5034471;28;20024;-58
2021/09/23 14:26:28;;;;;;;2.88;1.80;;;;;;;;;;5034407;28;20018;-58
2021/09/23 14:28:55;;;;;;;3.63;2.45;;;;;;;;;;5034986;28;20026;-58
2021/09/23 14:31:21;;;;;;;5.28;1.75;;;;;;;;;;5034186;28;20033;-59
2021/09/23 14:33:48;;;;;;;6.10;2.20;;;;;;;;;;5016579;28;20030;-58
2021/09/23 14:36:14;;;;;;;6.00;1.85;;;;;;;;;;5033718;28;20415;-58
2021/09/23 14:38:40;;;;;;;2.58;1.73;;;;;;;;;;5016454;28;20116;-58
2021/09/23 14:41:05;;;;;;;3.38;2.08;;;;;;;;;;5033527;28;20037;-58
2021/09/23 14:43:31;;;;;;;3.90;2.45;;;;;;;;;;5034130;28;20469;-58
2021/09/23 14:45:57;;;;;;;2.85;1.95;;;;;;;;;;5034354;28;20022;-59
2021/09/23 14:48:26;;;;;;;3.92;2.00;;;;;;;;;;5034430;28;20021;-58
2021/09/23 14:50:52;;;;;;;3.00;2.28;;;;;;;;;;5033838;28;20325;-58